createdAt,value
2023-03-22T00:00:51.026Z,100436.03
2023-03-22T00:02:53.920Z,100437.81
2023-03-22T00:04:56.836Z,100430.00
2023-03-22T00:06:59.639Z,100435.19
2023-03-22T00:09:02.456Z,100433.44
2023-03-22T00:11:06.860Z,100440.44
2023-03-22T00:13:11.017Z,100433.41
2023-03-22T00:15:15.406Z,100435.16
2023-03-22T00:17:18.395Z,100429.09
2023-03-22T00:19:21.210Z,100429.13
2023-03-22T00:21:24.206Z,100428.25
2023-03-22T00:23:28.688Z,100424.81
2023-03-22T00:25:31.997Z,100426.56
2023-03-22T00:27:34.817Z,100426.56
2023-03-22T00:29:37.875Z,100423.06
2023-03-22T00:31:42.190Z,100415.28
2023-03-22T00:33:45.292Z,100416.19
2023-03-22T00:35:52.384Z,100414.44
2023-03-22T00:37:55.272Z,100410.16
2023-03-22T00:39:58.814Z,100414.44
2023-03-22T00:42:01.808Z,100410.94
2023-03-22T00:44:04.676Z,100409.19
2023-03-22T00:46:08.224Z,100405.75
2023-03-22T00:48:12.936Z,100397.97
2023-03-22T00:50:15.911Z,100402.34
2023-03-22T00:52:18.860Z,100397.97
2023-03-22T00:54:21.628Z,100398.84
2023-03-22T00:56:25.552Z,100391.00
2023-03-22T00:58:36.760Z,100380.59
2023-03-22T01:00:39.836Z,100373.63
2023-03-22T01:02:45.298Z,100365.81
2023-03-22T01:04:54.467Z,100371.91
2023-03-22T01:06:59.314Z,100368.38
2023-03-22T01:09:02.791Z,100368.38
2023-03-22T01:11:07.177Z,100377.03
2023-03-22T01:13:11.765Z,100383.09
2023-03-22T01:15:14.681Z,100377.91
2023-03-22T01:17:17.559Z,100374.41
2023-03-22T01:19:21.010Z,100368.38
2023-03-22T01:21:25.215Z,100368.34
2023-03-22T01:23:28.667Z,100363.13
2023-03-22T01:25:31.843Z,100365.75
2023-03-22T01:27:34.630Z,100359.69
2023-03-22T01:29:37.537Z,100362.34
2023-03-22T01:31:40.478Z,100363.16
2023-03-22T01:33:43.375Z,100365.75
2023-03-22T01:35:46.307Z,100359.72
2023-03-22T01:37:50.597Z,100366.69
2023-03-22T01:39:55.070Z,100364.09
2023-03-22T01:41:58.160Z,100371.00
2023-03-22T01:44:15.829Z,100361.50
2023-03-22T01:46:18.801Z,100362.31
2023-03-22T01:48:27.026Z,100357.09
2023-03-22T01:50:31.328Z,100360.53
2023-03-22T01:52:34.371Z,100357.06
2023-03-22T01:54:46.037Z,100352.66
2023-03-22T01:57:04.180Z,100363.03
2023-03-22T01:59:16.355Z,100363.91
2023-03-22T02:01:35.983Z,100363.03
2023-03-22T02:03:48.796Z,100356.94
2023-03-22T02:05:51.950Z,100351.81
2023-03-22T02:07:57.345Z,100361.34
2023-03-22T02:10:02.748Z,100354.34
2023-03-22T02:12:22.933Z,100357.72
2023-03-22T02:14:58.273Z,100357.72
2023-03-22T02:17:29.968Z,100349.00
2023-03-22T02:20:05.644Z,100349.03
2023-03-22T02:22:39.335Z,100349.06
2023-03-22T02:25:08.895Z,100347.34
2023-03-22T02:27:41.758Z,100343.91
2023-03-22T02:29:48.180Z,100341.28
2023-03-22T02:32:36.801Z,100342.19
2023-03-22T02:34:57.505Z,100342.13
2023-03-22T02:37:34.402Z,100341.28
2023-03-22T02:39:43.772Z,100334.38
2023-03-22T02:42:00.923Z,100337.84
2023-03-22T02:44:13.782Z,100340.44
2023-03-22T02:46:23.645Z,100335.22
2023-03-22T02:48:28.941Z,100330.88
2023-03-22T02:50:39.512Z,100332.66
2023-03-22T02:52:46.867Z,100325.69
2023-03-22T02:54:57.028Z,100320.50
2023-03-22T02:57:03.900Z,100329.19
2023-03-22T02:59:10.027Z,100330.91
2023-03-22T03:01:19.868Z,100333.50
2023-03-22T03:03:25.614Z,100325.69
2023-03-22T03:05:31.924Z,100319.63
2023-03-22T03:07:35.706Z,100318.78
2023-03-22T03:09:41.272Z,100320.53
2023-03-22T03:11:46.481Z,100317.91
2023-03-22T03:13:49.653Z,100316.19
2023-03-22T03:15:55.181Z,100320.53
2023-03-22T03:18:14.125Z,100318.88
2023-03-22T03:20:29.940Z,100323.22
2023-03-22T03:22:45.122Z,100319.72
2023-03-22T03:24:52.547Z,100327.47
2023-03-22T03:27:03.648Z,100323.13
2023-03-22T03:29:13.024Z,100318.78
2023-03-22T03:31:26.325Z,100320.50
2023-03-22T03:33:33.917Z,100314.44
2023-03-22T03:35:45.347Z,100319.63
2023-03-22T03:37:52.618Z,100323.09
2023-03-22T03:39:59.888Z,100321.41
2023-03-22T03:42:07.633Z,100330.06
2023-03-22T03:44:11.543Z,100320.50
2023-03-22T03:46:15.153Z,100317.03
2023-03-22T03:48:21.420Z,100313.50
2023-03-22T03:50:25.577Z,100323.88
2023-03-22T03:52:31.496Z,100318.66
2023-03-22T03:54:34.591Z,100314.31
2023-03-22T03:56:38.275Z,100320.38
2023-03-22T03:58:42.500Z,100309.16
2023-03-22T04:00:46.954Z,100317.81
2023-03-22T04:02:52.753Z,100315.22
2023-03-22T04:05:19.331Z,100310.88
2023-03-22T04:07:22.105Z,100317.81
2023-03-22T04:09:26.941Z,100309.16
2023-03-22T04:11:34.392Z,100312.50
2023-03-22T04:13:38.824Z,100307.25
2023-03-22T04:15:47.747Z,100299.41
2023-03-22T04:17:53.631Z,100299.38
2023-03-22T04:19:59.094Z,100299.38
2023-03-22T04:22:02.271Z,100302.81
2023-03-22T04:24:07.869Z,100302.88
2023-03-22T04:26:14.616Z,100292.38
2023-03-22T04:28:29.029Z,100295.81
2023-03-22T04:30:36.187Z,100294.94
2023-03-22T04:32:59.161Z,100285.34
2023-03-22T04:35:16.592Z,100288.75
2023-03-22T04:37:20.016Z,100280.06
2023-03-22T04:39:28.514Z,100289.50
2023-03-22T04:41:47.387Z,100282.53
2023-03-22T04:43:51.066Z,100281.72
2023-03-22T04:45:58.095Z,100278.22
2023-03-22T04:48:10.437Z,100283.28
2023-03-22T04:50:13.598Z,100281.53
2023-03-22T04:52:23.843Z,100279.78
2023-03-22T04:54:30.069Z,100278.03
2023-03-22T04:56:32.946Z,100286.66
2023-03-22T04:58:37.135Z,100288.41
2023-03-22T05:00:42.316Z,100288.38
2023-03-22T05:02:46.200Z,100281.41
2023-03-22T05:05:00.751Z,100291.72
2023-03-22T05:07:10.949Z,100285.63
2023-03-22T05:09:28.196Z,100289.88
2023-03-22T05:11:31.607Z,100286.38
2023-03-22T05:13:54.948Z,100289.81
2023-03-22T05:15:59.412Z,100292.44
2023-03-22T05:18:14.326Z,100290.66
2023-03-22T05:20:18.751Z,100293.22
2023-03-22T05:22:27.643Z,100291.47
2023-03-22T05:24:33.435Z,100293.16
2023-03-22T05:26:38.050Z,100287.06
2023-03-22T05:28:40.852Z,100291.41
2023-03-22T05:30:51.457Z,100291.38
2023-03-22T05:33:05.605Z,100292.16
2023-03-22T05:35:14.041Z,100298.19
2023-03-22T05:37:22.919Z,100305.06
2023-03-22T05:39:29.484Z,100305.94
2023-03-22T05:41:35.888Z,100298.16
2023-03-22T05:43:39.681Z,100310.38
2023-03-22T05:45:43.081Z,100309.47
2023-03-22T05:47:59.329Z,100303.38
2023-03-22T05:50:03.682Z,100300.69
2023-03-22T05:52:07.935Z,100308.44
2023-03-22T05:54:24.786Z,100312.81
2023-03-22T05:56:28.742Z,100303.66
2023-03-22T05:58:41.040Z,100309.31
2023-03-22T06:00:45.229Z,100307.00
2023-03-22T06:03:08.822Z,100310.50
2023-03-22T06:05:18.288Z,100305.16
2023-03-22T06:07:21.398Z,100309.25
2023-03-22T06:09:30.587Z,100303.91
2023-03-22T06:11:35.204Z,100310.56
2023-03-22T06:13:41.185Z,100305.34
2023-03-22T06:15:47.736Z,100314.00
2023-03-22T06:17:56.607Z,100312.25
2023-03-22T06:20:08.790Z,100311.34
2023-03-22T06:22:11.777Z,100317.41
2023-03-22T06:24:14.660Z,100317.41
2023-03-22T06:26:18.803Z,100313.03
2023-03-22T06:28:21.685Z,100307.91
2023-03-22T06:30:27.167Z,100299.28
2023-03-22T06:32:43.693Z,100299.31
2023-03-22T06:34:46.714Z,100302.00
2023-03-22T06:36:49.750Z,100300.31
2023-03-22T06:39:13.609Z,100304.63
2023-03-22T06:41:21.032Z,100307.25
2023-03-22T06:43:24.176Z,100307.38
2023-03-22T06:45:33.525Z,100307.41
2023-03-22T06:47:37.682Z,100309.00
2023-03-22T06:49:40.649Z,100314.19
2023-03-22T06:51:44.844Z,100317.81
2023-03-22T06:53:48.287Z,100310.94
2023-03-22T06:55:53.737Z,100319.63
2023-03-22T06:58:01.094Z,100320.59
2023-03-22T07:00:05.326Z,100330.16
2023-03-22T07:02:08.179Z,100318.03
2023-03-22T07:04:11.023Z,100329.44
2023-03-22T07:06:15.027Z,100326.09
2023-03-22T07:08:21.718Z,100332.16
2023-03-22T07:10:26.468Z,100326.97
2023-03-22T07:12:37.300Z,100329.63
2023-03-22T07:14:48.552Z,100336.63
2023-03-22T07:17:01.753Z,100334.06
2023-03-22T07:19:05.944Z,100323.78
2023-03-22T07:21:08.931Z,100341.16
2023-03-22T07:23:15.341Z,100332.50
2023-03-22T07:25:24.595Z,100337.78
2023-03-22T07:27:36.360Z,100335.13
2023-03-22T07:29:39.850Z,100334.38
2023-03-22T07:31:45.761Z,100339.66
2023-03-22T07:34:01.115Z,100347.47
2023-03-22T07:36:09.092Z,100338.84
2023-03-22T07:38:11.936Z,100339.72
2023-03-22T07:40:15.322Z,100337.16
2023-03-22T07:42:18.316Z,100328.53
2023-03-22T07:44:44.273Z,100325.13
2023-03-22T07:46:48.706Z,100325.16
2023-03-22T07:48:56.154Z,100328.69
2023-03-22T07:51:19.136Z,100333.91
2023-03-22T07:53:22.184Z,100333.97
2023-03-22T07:55:26.256Z,100332.19
2023-03-22T07:57:29.229Z,100334.88
2023-03-22T07:59:36.328Z,100323.69
2023-03-22T08:01:40.309Z,100322.84
2023-03-22T08:03:55.217Z,100327.25
2023-03-22T08:06:27.324Z,100321.25
2023-03-22T08:08:30.291Z,100323.94
2023-03-22T08:10:33.877Z,100323.09
2023-03-22T08:12:37.029Z,100317.91
2023-03-22T08:14:57.780Z,100319.66
2023-03-22T08:17:02.584Z,100318.78
2023-03-22T08:19:07.533Z,100324.88
2023-03-22T08:21:12.884Z,100318.81
2023-03-22T08:23:16.318Z,100311.00
2023-03-22T08:25:23.528Z,100309.25
2023-03-22T08:27:28.402Z,100311.00
2023-03-22T08:29:33.939Z,100305.78
2023-03-22T08:31:38.163Z,100307.56
2023-03-22T08:33:41.164Z,100310.19
2023-03-22T08:35:46.285Z,100298.91
2023-03-22T08:37:49.454Z,100290.22
2023-03-22T08:39:52.413Z,100291.97
2023-03-22T08:42:07.139Z,100296.28
2023-03-22T08:44:11.922Z,100297.13
2023-03-22T08:46:15.832Z,100285.81
2023-03-22T08:48:20.864Z,100289.28
2023-03-22T08:50:48.341Z,100295.34
2023-03-22T08:53:00.580Z,100288.41
2023-03-22T08:55:09.251Z,100286.69
2023-03-22T08:57:51.721Z,100286.63
2023-03-22T09:00:16.246Z,100285.78
2023-03-22T09:02:42.484Z,100282.28
2023-03-22T09:04:45.524Z,100279.69
2023-03-22T09:06:49.730Z,100280.50
2023-03-22T09:08:52.960Z,100276.13
2023-03-22T09:10:58.976Z,100274.38
2023-03-22T09:13:02.013Z,100274.38
2023-03-22T09:15:06.200Z,100269.09
2023-03-22T09:17:09.916Z,100271.66
2023-03-22T09:19:12.800Z,100264.59
2023-03-22T09:21:16.636Z,100267.09
2023-03-22T09:23:42.478Z,100264.41
2023-03-22T09:25:48.404Z,100255.63
2023-03-22T09:27:55.092Z,100259.81
2023-03-22T09:29:58.070Z,100259.03
2023-03-22T09:32:00.832Z,100250.34
2023-03-22T09:34:07.777Z,100251.16
2023-03-22T09:36:12.701Z,100252.88
2023-03-22T09:38:16.369Z,100247.75
2023-03-22T09:40:27.894Z,100256.38
2023-03-22T09:42:37.666Z,100241.66
2023-03-22T09:44:44.368Z,100248.47
2023-03-22T09:46:56.167Z,100251.91
2023-03-22T09:49:02.894Z,100248.28
2023-03-22T09:51:08.573Z,100240.47
2023-03-22T09:53:14.871Z,100250.13
2023-03-22T09:55:31.445Z,100250.16
2023-03-22T09:57:37.512Z,100237.28
2023-03-22T09:59:45.409Z,100240.91
2023-03-22T10:01:54.252Z,100233.97
2023-03-22T10:04:10.962Z,100226.16
2023-03-22T10:06:18.782Z,100228.81
2023-03-22T10:08:42.063Z,100225.25
2023-03-22T10:10:46.707Z,100215.53
2023-03-22T10:12:52.993Z,100215.47
2023-03-22T10:15:04.274Z,100210.97
2023-03-22T10:17:12.521Z,100212.63
2023-03-22T10:19:21.692Z,100216.78
2023-03-22T10:21:24.906Z,100220.09
2023-03-22T10:23:33.798Z,100224.41
2023-03-22T10:25:38.814Z,100213.75
2023-03-22T10:27:43.936Z,100209.03
2023-03-22T10:29:52.246Z,100208.09
2023-03-22T10:31:55.957Z,100195.09
2023-03-22T10:34:02.048Z,100198.19
2023-03-22T10:36:07.164Z,100194.28
2023-03-22T10:38:20.600Z,100196.78
2023-03-22T10:40:27.248Z,100194.00
2023-03-22T10:42:32.158Z,100197.13
2023-03-22T10:44:45.883Z,100194.97
2023-03-22T10:46:51.011Z,100195.59
2023-03-22T10:48:58.865Z,100191.13
2023-03-22T10:51:02.364Z,100186.19
2023-03-22T10:53:08.011Z,100195.84
2023-03-22T10:55:14.043Z,100185.19
2023-03-22T10:57:17.317Z,100193.16
2023-03-22T10:59:47.277Z,100184.53
2023-03-22T11:01:52.593Z,100183.00
2023-03-22T11:03:58.709Z,100185.28
2023-03-22T11:06:03.371Z,100182.41
2023-03-22T11:08:06.659Z,100185.25
2023-03-22T11:10:28.921Z,100174.94
2023-03-22T11:12:31.878Z,100177.66
2023-03-22T11:14:37.000Z,100174.97
2023-03-22T11:16:48.440Z,100181.66
2023-03-22T11:18:51.798Z,100167.69
2023-03-22T11:20:59.511Z,100164.88
2023-03-22T11:23:05.222Z,100165.06
2023-03-22T11:25:14.769Z,100162.25
2023-03-22T11:27:21.473Z,100158.72
2023-03-22T11:29:24.348Z,100163.94
2023-03-22T11:31:27.701Z,100150.81
2023-03-22T11:33:32.947Z,100153.56
2023-03-22T11:35:38.180Z,100141.97
2023-03-22T11:37:42.674Z,100149.50
2023-03-22T11:39:49.180Z,100149.19
2023-03-22T11:41:53.600Z,100142.69
2023-03-22T11:43:57.676Z,100144.38
2023-03-22T11:46:01.502Z,100139.66
2023-03-22T11:48:08.007Z,100137.25
2023-03-22T11:50:26.845Z,100136.47
2023-03-22T11:52:30.531Z,100142.47
2023-03-22T11:54:38.106Z,100134.66
2023-03-22T11:56:43.376Z,100126.16
2023-03-22T11:59:06.511Z,100127.00
2023-03-22T12:01:15.386Z,100132.53
2023-03-22T12:03:23.760Z,100128.13
2023-03-22T12:05:31.034Z,100113.66
2023-03-22T12:07:36.407Z,100115.81
2023-03-22T12:09:42.852Z,100117.09
2023-03-22T12:11:50.022Z,100113.50
2023-03-22T12:13:58.502Z,100118.75
2023-03-22T12:16:03.897Z,100116.22
2023-03-22T12:18:12.844Z,100113.47
2023-03-22T12:20:22.858Z,100097.88
2023-03-22T12:22:32.801Z,100092.56
2023-03-22T12:24:35.718Z,100094.63
2023-03-22T12:26:39.397Z,100090.38
2023-03-22T12:28:48.409Z,100090.97
2023-03-22T12:30:56.099Z,100094.28
2023-03-22T12:33:03.661Z,100085.84
2023-03-22T12:35:17.582Z,100069.94
2023-03-22T12:37:42.382Z,100083.72
2023-03-22T12:39:51.852Z,100073.34
2023-03-22T12:41:58.362Z,100067.22
2023-03-22T12:46:50.832Z,100065.59
2023-03-22T12:48:59.579Z,100062.94
2023-03-22T12:51:06.883Z,100058.25
2023-03-22T12:53:15.898Z,100053.88
2023-03-22T12:55:23.742Z,100063.56
2023-03-22T12:57:27.376Z,100057.56
2023-03-22T12:59:32.504Z,100053.81
2023-03-22T13:01:40.824Z,100056.03
2023-03-22T13:03:47.971Z,100036.00
2023-03-22T13:06:00.373Z,100060.28
2023-03-22T13:08:05.885Z,100045.03
2023-03-22T13:10:42.340Z,100043.53
2023-03-22T13:13:12.974Z,100044.41
2023-03-22T13:15:41.321Z,100035.59
2023-03-22T13:17:46.854Z,100042.59
2023-03-22T13:19:53.492Z,100031.91
2023-03-22T13:22:15.288Z,100028.50
2023-03-22T13:24:23.832Z,100027.69
2023-03-22T13:26:33.200Z,100022.63
2023-03-22T13:28:38.214Z,100027.66
2023-03-22T13:30:50.251Z,100023.69
2023-03-22T13:32:56.528Z,100025.19
2023-03-22T13:35:00.661Z,100022.69
2023-03-22T13:37:05.232Z,100025.44
2023-03-22T13:39:12.289Z,100029.00
2023-03-22T13:41:22.556Z,100028.22
2023-03-22T13:43:34.565Z,100018.63
2023-03-22T13:45:59.677Z,100010.84
2023-03-22T13:48:07.676Z,100017.91
2023-03-22T13:50:16.007Z,100010.97
2023-03-22T13:52:28.695Z,100014.25
2023-03-22T13:54:38.749Z,100008.28
2023-03-22T13:56:53.266Z,100024.81
2023-03-22T13:58:58.594Z,100031.91
2023-03-22T14:01:04.684Z,100008.09
2023-03-22T14:03:15.475Z,100005.47
2023-03-22T14:05:22.251Z,100006.31
2023-03-22T14:07:30.764Z,100012.50
2023-03-22T14:09:36.686Z,99999.06
2023-03-22T14:11:45.560Z,100009.56
2023-03-22T14:13:52.208Z,100007.81
2023-03-22T14:15:57.545Z,100003.19
2023-03-22T14:18:07.886Z,99998.53
2023-03-22T14:20:16.101Z,99983.63
